CYYJ/YYJ METAR and TAF weather

Enter ICAO airport designator
Station Type Date Time Source
CYYJ METAR 2020/11/27 14:00 UTC NOAA

CYYJ 271400Z 14006KT 20SM SCT009 SCT030 BKN086 07/06 A3023 RMK SF3SC1AC1 SLP240


Station Type Date Time Source
CYYJ Decoded METAR 2020/11/27 14:00 UTC NOAA

Victoria Int. Airport, B. C., Canada (CYYJ) 48-39N 123-26W 19M
Nov 27, 2020 - 09:00 AM EST / 2020.11.27 1400 UTC
Wind: from the SE (140 degrees) at 7 MPH (6 KT):0
Visibility: 20 mile(s):0
Sky conditions: mostly cloudy
Temperature: 44 F (7 C)
Dew Point: 42 F (6 C)
Relative Humidity: 93%
Pressure (altimeter): 30.23 in. Hg (1023 hPa)
ob: CYYJ 271400Z 14006KT 20SM SCT009 SCT030 BKN086 07/06 A3023 RMK SF3SC1AC1 SLP240
cycle: 14

Station Type Date Time Source
CYYJ TAF 2020/11/27 12:42 UTC NOAA

TAF TAF CYYJ 271138Z 2712/2812 14008KT P6SM FEW012 BKN030
TEMPO 2712/2720 BKN012
FM272000 15010KT P6SM SCT040
FM280100 14012KT P6SM -RA SCT020 OVC040
TEMPO 2801/2806 5SM -SHRA BR BKN020 OVC040
FM280600 25010KT P6SM FEW005 SCT020
RMK NXT FCST BY 271800Z

Example: see airport list